Cannelton, Indiana
Current Conditions -  °F | °C
As of 11:55 PM on Monday 26 Jan 2015 (Local Time) from KHNB Reporting Station
Overcast Overcast  
Wind Chill: 23°   Ceiling: 300
Heat Index: 28°   Visibility: 3mi
Dew Point: 25°   Wind: 5mph
Humidity: 86%   Direction: 160°SSE
Pressure: 29.92"   Gusts: NA
Location:  37.91°N, 86.74°W
Report Text: KHNB 270555Z AUTO 16004KT 3SM OVC003 M02/M04 A2992 RMK AO1 11020 21030 410101030 57014
Loading
Personal Weather Stations






























Interactive Weather Map New forecast layout! Learn more

10-Day Weather Forecast

Advertisements
Track Severe Weather on mobile